createdAt,value
2022-12-27T00:01:20.187Z,1.50
2022-12-27T00:03:21.747Z,1.20
2022-12-27T00:05:23.206Z,1.40
2022-12-27T00:07:24.690Z,1.23
2022-12-27T00:09:26.079Z,1.17
2022-12-27T00:11:31.371Z,1.38
2022-12-27T00:13:32.786Z,1.40
2022-12-27T00:15:35.641Z,1.10
2022-12-27T00:17:37.614Z,1.50
2022-12-27T00:19:39.043Z,1.10
2022-12-27T00:21:40.499Z,1.63
2022-12-27T00:23:44.858Z,1.40
2022-12-27T00:25:46.222Z,1.33
2022-12-27T00:27:47.611Z,1.48
2022-12-27T00:29:48.996Z,1.45
2022-12-27T00:31:50.448Z,1.42
2022-12-27T00:33:54.505Z,2.03
2022-12-27T00:35:57.891Z,1.75
2022-12-27T00:37:59.325Z,1.35
2022-12-27T00:40:00.659Z,1.40
2022-12-27T00:42:02.097Z,1.90
2022-12-27T00:44:03.533Z,1.45
2022-12-27T00:46:05.097Z,1.50
2022-12-27T00:48:06.543Z,1.60
2022-12-27T00:50:08.274Z,1.55
2022-12-27T00:52:09.632Z,1.58
2022-12-27T00:54:11.130Z,1.60
2022-12-27T00:56:16.265Z,1.63
2022-12-27T00:58:17.687Z,1.55
2022-12-27T01:00:19.249Z,1.83
2022-12-27T01:02:20.754Z,1.92
2022-12-27T01:04:22.204Z,1.83
2022-12-27T01:06:28.897Z,1.98
2022-12-27T01:08:30.349Z,1.88
2022-12-27T01:10:32.759Z,1.63
2022-12-27T01:12:36.130Z,1.73
2022-12-27T01:14:37.532Z,1.98
2022-12-27T01:16:40.483Z,2.17
2022-12-27T01:18:41.991Z,1.92
2022-12-27T01:20:43.361Z,1.48
2022-12-27T01:22:44.756Z,1.65
2022-12-27T01:24:46.123Z,1.38
2022-12-27T01:26:47.541Z,1.83
2022-12-27T01:28:49.799Z,1.50
2022-12-27T01:30:51.181Z,1.77
2022-12-27T01:32:52.648Z,2.28
2022-12-27T01:34:54.054Z,2.08
2022-12-27T01:36:55.433Z,2.15
2022-12-27T01:38:58.151Z,1.80
2022-12-27T01:40:59.494Z,1.60
2022-12-27T01:43:00.877Z,2.38
2022-12-27T01:45:03.843Z,1.75
2022-12-27T01:47:32.905Z,1.75
2022-12-27T01:49:34.317Z,1.63
2022-12-27T01:51:35.964Z,1.50
2022-12-27T01:53:41.907Z,1.70
2022-12-27T01:55:51.551Z,2.03
2022-12-27T01:57:58.505Z,2.08
2022-12-27T02:00:00.689Z,2.10
2022-12-27T02:02:03.032Z,1.90
2022-12-27T02:04:10.426Z,1.70
2022-12-27T02:06:13.883Z,2.05
2022-12-27T02:08:37.409Z,1.80
2022-12-27T02:10:39.692Z,2.72
2022-12-27T02:12:41.156Z,1.88
2022-12-27T02:14:49.061Z,1.90
2022-12-27T02:16:51.926Z,1.63
2022-12-27T02:18:53.382Z,1.65
2022-12-27T02:21:19.591Z,1.60
2022-12-27T02:23:42.702Z,1.92
2022-12-27T02:26:04.549Z,1.85
2022-12-27T02:28:08.850Z,1.58
2022-12-27T02:30:12.946Z,1.70
2022-12-27T02:32:27.839Z,2.10
2022-12-27T02:34:37.194Z,1.90
2022-12-27T02:36:41.514Z,1.92
2022-12-27T02:38:49.015Z,2.25
2022-12-27T02:41:09.964Z,2.35
2022-12-27T02:43:30.197Z,1.75
2022-12-27T02:45:55.049Z,1.80
2022-12-27T02:48:14.787Z,2.00
2022-12-27T02:53:05.687Z,2.10
2022-12-27T02:55:23.586Z,2.20
2022-12-27T02:57:41.012Z,2.40
2022-12-27T03:00:08.089Z,2.40
2022-12-27T03:02:30.968Z,2.28
2022-12-27T03:04:46.707Z,2.65
2022-12-27T03:07:10.453Z,2.63
2022-12-27T03:09:53.072Z,2.40
2022-12-27T03:12:13.815Z,1.92
2022-12-27T03:14:45.056Z,2.40
2022-12-27T03:16:58.221Z,2.55
2022-12-27T03:19:40.785Z,2.20
2022-12-27T03:22:04.574Z,2.47
2022-12-27T03:24:36.556Z,2.33
2022-12-27T03:26:42.506Z,2.13
2022-12-27T03:29:04.755Z,1.90
2022-12-27T03:31:31.176Z,2.45
2022-12-27T03:33:34.390Z,2.42
2022-12-27T03:35:40.679Z,2.30
2022-12-27T03:38:05.185Z,2.28
2022-12-27T03:40:38.773Z,1.80
2022-12-27T03:43:13.157Z,2.00
2022-12-27T03:45:14.747Z,1.92
2022-12-27T03:47:31.284Z,1.60
2022-12-27T03:49:32.586Z,2.17
2022-12-27T03:51:46.471Z,2.60
2022-12-27T03:53:53.364Z,2.80
2022-12-27T03:55:54.800Z,2.72
2022-12-27T03:57:56.312Z,2.47
2022-12-27T03:59:57.759Z,2.70
2022-12-27T04:01:59.997Z,2.80
2022-12-27T04:04:01.521Z,2.95
2022-12-27T04:06:02.942Z,2.50
2022-12-27T04:08:22.917Z,2.85
2022-12-27T04:10:42.607Z,2.80
2022-12-27T04:13:02.395Z,2.95
2022-12-27T04:15:22.653Z,2.65
2022-12-27T04:17:42.315Z,2.67
2022-12-27T04:20:02.336Z,2.80
2022-12-27T04:22:22.449Z,2.75
2022-12-27T04:24:42.271Z,3.13
2022-12-27T04:27:02.030Z,2.60
2022-12-27T04:31:42.007Z,2.72
2022-12-27T04:34:01.804Z,3.10
2022-12-27T04:36:06.306Z,2.85
2022-12-27T04:38:08.117Z,2.80
2022-12-27T04:40:28.276Z,2.92
2022-12-27T04:42:48.535Z,2.72
2022-12-27T04:45:14.934Z,3.17
2022-12-27T04:47:39.286Z,2.85
2022-12-27T04:49:59.508Z,3.25
2022-12-27T04:52:19.874Z,2.80
2022-12-27T04:54:41.756Z,2.95
2022-12-27T04:56:43.197Z,2.70
2022-12-27T04:59:04.547Z,2.80
2022-12-27T05:01:24.789Z,2.88
2022-12-27T05:03:26.265Z,2.83
2022-12-27T05:05:27.892Z,2.40
2022-12-27T05:07:48.179Z,3.22
2022-12-27T05:10:08.548Z,3.13
2022-12-27T05:12:29.291Z,2.75
2022-12-27T05:14:30.692Z,3.10
2022-12-27T05:16:36.011Z,3.08
2022-12-27T05:18:37.459Z,2.78
2022-12-27T05:20:38.910Z,2.55
2022-12-27T05:22:58.843Z,2.40
2022-12-27T05:25:18.710Z,2.80
2022-12-27T05:27:20.195Z,2.38
2022-12-27T05:29:21.551Z,3.35
2022-12-27T05:31:24.758Z,2.38
2022-12-27T05:33:26.166Z,2.40
2022-12-27T05:35:28.255Z,2.75
2022-12-27T05:37:29.686Z,2.45
2022-12-27T05:39:31.484Z,2.83
2022-12-27T05:41:32.856Z,2.30
2022-12-27T05:43:35.247Z,2.53
2022-12-27T05:45:36.636Z,2.65
2022-12-27T05:47:38.456Z,2.92
2022-12-27T05:49:40.000Z,2.58
2022-12-27T05:51:41.433Z,2.75
2022-12-27T05:53:43.293Z,2.80
2022-12-27T05:55:45.214Z,3.55
2022-12-27T05:57:46.779Z,2.60
2022-12-27T05:59:48.452Z,2.97
2022-12-27T06:01:51.520Z,3.60
2022-12-27T06:03:53.031Z,3.08
2022-12-27T06:06:00.573Z,3.60
2022-12-27T06:08:02.020Z,2.95
2022-12-27T06:10:06.498Z,3.13
2022-12-27T06:12:07.897Z,2.92
2022-12-27T06:14:09.304Z,3.13
2022-12-27T06:16:12.455Z,3.42
2022-12-27T06:18:14.339Z,3.00
2022-12-27T06:20:16.066Z,2.90
2022-12-27T06:22:18.142Z,2.45
2022-12-27T06:24:19.585Z,3.10
2022-12-27T06:26:24.167Z,2.80
2022-12-27T06:28:25.600Z,2.88
2022-12-27T06:30:31.541Z,2.80
2022-12-27T06:32:36.035Z,3.10
2022-12-27T06:34:37.534Z,2.90
2022-12-27T06:36:38.932Z,2.58
2022-12-27T06:38:40.827Z,2.65
2022-12-27T06:40:42.592Z,2.65
2022-12-27T06:42:44.047Z,2.35
2022-12-27T06:44:46.082Z,2.80
2022-12-27T06:46:47.553Z,2.70
2022-12-27T06:48:48.990Z,2.60
2022-12-27T06:50:51.164Z,3.30
2022-12-27T06:52:53.065Z,2.90
2022-12-27T06:54:54.628Z,2.83
2022-12-27T06:56:56.964Z,2.70
2022-12-27T06:58:58.750Z,3.17
2022-12-27T07:01:24.296Z,3.22
2022-12-27T07:03:26.100Z,2.40
2022-12-27T07:05:27.653Z,3.65
2022-12-27T07:07:29.010Z,2.85
2022-12-27T07:09:30.458Z,2.90
2022-12-27T07:11:33.982Z,3.38
2022-12-27T07:13:37.315Z,2.70
2022-12-27T07:15:38.860Z,3.55
2022-12-27T07:17:40.325Z,3.03
2022-12-27T07:19:41.889Z,4.07
2022-12-27T07:21:43.327Z,2.83
2022-12-27T07:23:46.755Z,3.67
2022-12-27T07:25:48.735Z,3.35
2022-12-27T07:27:50.155Z,3.00
2022-12-27T07:29:51.807Z,3.47
2022-12-27T07:31:53.485Z,3.22
2022-12-27T07:33:55.683Z,3.30
2022-12-27T07:35:59.356Z,3.03
2022-12-27T07:38:00.751Z,2.28
2022-12-27T07:40:02.163Z,2.90
2022-12-27T07:42:08.136Z,3.05
2022-12-27T07:44:11.068Z,3.20
2022-12-27T07:46:18.808Z,3.03
2022-12-27T07:48:20.528Z,3.17
2022-12-27T07:50:22.062Z,2.97
2022-12-27T07:52:43.833Z,3.60
2022-12-27T07:54:45.216Z,2.72
2022-12-27T07:56:46.622Z,2.83
2022-12-27T07:58:49.835Z,3.05
2022-12-27T08:00:52.329Z,2.83
2022-12-27T08:02:53.783Z,2.78
2022-12-27T08:04:55.201Z,3.05
2022-12-27T08:07:12.288Z,2.58
2022-12-27T08:09:17.061Z,2.80
2022-12-27T08:11:19.498Z,2.45
2022-12-27T08:13:20.948Z,2.15
2022-12-27T08:15:22.547Z,2.70
2022-12-27T08:17:27.093Z,2.42
2022-12-27T08:19:28.572Z,2.70
2022-12-27T08:21:29.955Z,2.35
2022-12-27T08:23:31.700Z,2.58
2022-12-27T08:25:33.105Z,3.13
2022-12-27T08:27:34.593Z,2.17
2022-12-27T08:29:36.626Z,2.85
2022-12-27T08:31:37.995Z,2.80
2022-12-27T08:33:41.808Z,2.83
2022-12-27T08:35:53.937Z,2.75
2022-12-27T08:37:55.912Z,2.42
2022-12-27T08:40:02.484Z,2.72
2022-12-27T08:44:06.368Z,2.95
2022-12-27T08:46:08.421Z,2.88
2022-12-27T08:48:09.948Z,2.80
2022-12-27T08:50:11.459Z,2.90
2022-12-27T08:52:12.824Z,3.30
2022-12-27T08:54:14.222Z,2.75
2022-12-27T08:56:15.588Z,2.78
2022-12-27T08:58:17.030Z,2.72
2022-12-27T09:00:18.556Z,2.95
2022-12-27T09:02:20.173Z,3.15
2022-12-27T09:04:21.800Z,3.13
2022-12-27T09:06:25.844Z,3.13
2022-12-27T09:08:27.241Z,3.00
2022-12-27T09:10:28.686Z,2.88
2022-12-27T09:12:32.572Z,2.90
2022-12-27T09:14:34.040Z,2.80
2022-12-27T09:16:35.886Z,2.60
2022-12-27T09:18:42.015Z,2.42
2022-12-27T09:20:43.430Z,2.58
2022-12-27T09:22:45.203Z,2.40
2022-12-27T09:24:46.758Z,2.22
2022-12-27T09:26:48.235Z,2.33
2022-12-27T09:28:50.374Z,2.80
2022-12-27T09:30:51.935Z,2.22
2022-12-27T09:32:53.353Z,2.70
2022-12-27T09:34:54.986Z,2.72
2022-12-27T09:36:56.361Z,2.40
2022-12-27T09:38:58.849Z,2.35
2022-12-27T09:41:03.710Z,2.20
2022-12-27T09:43:19.513Z,2.38
2022-12-27T09:45:37.302Z,2.72
2022-12-27T09:47:46.952Z,2.03
2022-12-27T09:49:58.667Z,2.20
2022-12-27T09:52:23.059Z,2.55
2022-12-27T09:54:36.037Z,2.05
2022-12-27T09:57:09.639Z,1.70
2022-12-27T09:59:10.515Z,1.80
2022-12-27T10:01:20.258Z,1.60
2022-12-27T10:03:25.389Z,1.80
2022-12-27T10:05:33.790Z,1.80
2022-12-27T10:07:47.107Z,1.80
2022-12-27T10:10:00.457Z,2.10
2022-12-27T10:14:26.010Z,1.70
2022-12-27T10:16:53.318Z,1.52
2022-12-27T10:19:15.883Z,1.70
2022-12-27T10:21:22.750Z,1.95
2022-12-27T10:23:27.909Z,1.95
2022-12-27T10:25:30.427Z,1.70
2022-12-27T10:27:32.047Z,1.63
2022-12-27T10:29:34.055Z,1.48
2022-12-27T10:31:41.353Z,1.70
2022-12-27T10:33:44.064Z,2.08
2022-12-27T10:35:46.038Z,1.65
2022-12-27T10:37:48.864Z,1.80
2022-12-27T10:39:50.250Z,1.65
2022-12-27T10:42:26.618Z,1.73
2022-12-27T10:44:29.261Z,1.30
2022-12-27T10:46:33.671Z,1.73
2022-12-27T10:48:54.664Z,2.10
2022-12-27T10:51:06.113Z,1.73
2022-12-27T10:53:27.166Z,1.77
2022-12-27T10:55:37.493Z,1.33
2022-12-27T10:57:38.906Z,1.77
2022-12-27T10:59:40.323Z,1.90
2022-12-27T11:01:42.199Z,1.75
2022-12-27T11:03:43.786Z,1.55
2022-12-27T11:06:00.012Z,1.90
2022-12-27T11:08:20.295Z,2.20
2022-12-27T11:10:25.129Z,2.17
2022-12-27T11:12:33.103Z,1.50
2022-12-27T11:14:37.547Z,2.03
2022-12-27T11:16:41.248Z,2.10
2022-12-27T11:18:53.180Z,1.67
2022-12-27T11:20:57.663Z,1.98
2022-12-27T11:23:02.985Z,1.77
2022-12-27T11:25:04.588Z,1.77
2022-12-27T11:27:06.054Z,1.85
2022-12-27T11:29:17.722Z,1.60
2022-12-27T11:31:31.529Z,2.17
2022-12-27T11:33:50.033Z,1.95
2022-12-27T11:35:54.201Z,1.95
2022-12-27T11:37:56.321Z,3.33
2022-12-27T11:40:25.760Z,1.90
2022-12-27T11:42:49.968Z,1.92
2022-12-27T11:45:15.435Z,2.08
2022-12-27T11:47:41.207Z,2.03
2022-12-27T11:50:05.788Z,1.83
2022-12-27T11:52:41.334Z,2.08
2022-12-27T11:55:19.206Z,2.10
2022-12-27T11:58:02.987Z,2.08
2022-12-27T12:00:19.303Z,1.88
2022-12-27T12:03:02.849Z,2.17
2022-12-27T12:05:35.275Z,2.58
2022-12-27T12:07:36.788Z,2.30
2022-12-27T12:09:56.383Z,2.33
2022-12-27T12:16:57.770Z,2.47
2022-12-27T12:19:21.587Z,2.65
2022-12-27T12:21:42.575Z,2.45
2022-12-27T12:24:03.102Z,2.70
2022-12-27T12:26:13.451Z,2.72
2022-12-27T12:28:57.597Z,3.03
2022-12-27T12:31:19.141Z,3.25
2022-12-27T12:33:39.160Z,3.15
2022-12-27T12:35:57.416Z,3.20
2022-12-27T12:38:16.135Z,3.10
2022-12-27T12:40:29.881Z,3.63
2022-12-27T12:42:51.573Z,3.50
2022-12-27T12:45:17.865Z,3.03
2022-12-27T12:47:44.255Z,3.28
2022-12-27T12:49:51.779Z,3.47
2022-12-27T12:52:11.323Z,3.70
2022-12-27T12:56:58.791Z,3.50
2022-12-27T12:59:41.660Z,3.45
2022-12-27T13:02:12.607Z,3.25
2022-12-27T13:04:37.537Z,3.38
2022-12-27T13:07:03.396Z,3.25
2022-12-27T13:12:02.318Z,3.35
2022-12-27T13:14:16.248Z,2.80
2022-12-27T13:16:36.501Z,2.90
2022-12-27T13:18:50.074Z,4.15
2022-12-27T13:21:11.109Z,3.58
2022-12-27T13:23:37.465Z,3.55
2022-12-27T13:25:53.717Z,3.45
2022-12-27T13:28:32.501Z,2.95
2022-12-27T13:30:41.714Z,2.83
2022-12-27T13:33:14.356Z,3.10
2022-12-27T13:35:52.391Z,2.20
2022-12-27T13:38:06.053Z,2.30
2022-12-27T13:40:50.585Z,2.47
2022-12-27T13:43:10.645Z,2.28
2022-12-27T13:45:36.895Z,2.30
2022-12-27T13:47:56.709Z,2.22
2022-12-27T13:50:28.883Z,1.92
2022-12-27T13:55:08.708Z,2.15
2022-12-27T13:57:28.120Z,2.47
2022-12-27T13:59:38.774Z,2.45
2022-12-27T14:02:02.072Z,2.13
2022-12-27T14:04:38.121Z,2.10
2022-12-27T14:06:58.275Z,2.17
2022-12-27T14:09:10.134Z,1.77
2022-12-27T14:11:30.045Z,1.95
2022-12-27T14:13:36.609Z,1.98
2022-12-27T14:16:16.391Z,1.95
2022-12-27T14:18:51.412Z,1.67
2022-12-27T14:21:05.395Z,1.90
2022-12-27T14:23:18.762Z,1.45
2022-12-27T14:27:46.515Z,1.50
2022-12-27T14:30:25.447Z,1.50
2022-12-27T14:32:37.928Z,1.77
2022-12-27T14:35:08.424Z,1.50
2022-12-27T14:37:37.510Z,1.55
2022-12-27T14:39:44.997Z,1.75
2022-12-27T14:42:24.092Z,1.20
2022-12-27T14:44:44.032Z,1.55
2022-12-27T14:47:24.753Z,1.45
2022-12-27T14:49:50.182Z,1.25
2022-12-27T14:52:04.533Z,1.20
2022-12-27T14:54:28.050Z,1.30
2022-12-27T14:56:32.673Z,1.60
2022-12-27T14:59:09.560Z,2.15
2022-12-27T15:01:20.222Z,1.40
2022-12-27T15:03:48.709Z,1.23
2022-12-27T15:06:20.841Z,1.45
2022-12-27T15:08:46.643Z,1.65
2022-12-27T15:11:25.707Z,1.85
2022-12-27T15:13:48.729Z,1.67
2022-12-27T15:16:15.923Z,1.45
2022-12-27T15:18:26.424Z,1.60
2022-12-27T15:20:43.067Z,1.73
2022-12-27T15:22:50.452Z,1.38
2022-12-27T15:27:58.551Z,1.45
2022-12-27T15:30:05.651Z,1.63
2022-12-27T15:32:24.827Z,1.30
2022-12-27T15:34:50.767Z,1.17
2022-12-27T15:38:55.055Z,1.48
2022-12-27T15:41:08.621Z,1.70
2022-12-27T15:45:41.116Z,1.20
2022-12-27T15:48:03.225Z,1.30
2022-12-27T15:50:18.533Z,1.15
2022-12-27T15:52:38.438Z,1.80
2022-12-27T15:55:05.651Z,1.27
2022-12-27T15:57:19.026Z,1.88
2022-12-27T16:01:40.903Z,1.52
2022-12-27T16:03:46.974Z,1.55
2022-12-27T16:05:52.298Z,1.60
2022-12-27T16:07:59.618Z,1.75
2022-12-27T16:10:29.866Z,1.50
2022-12-27T16:12:39.203Z,1.60
2022-12-27T16:14:43.182Z,1.48
2022-12-27T16:16:53.818Z,1.95
2022-12-27T16:19:18.169Z,1.55
2022-12-27T16:21:23.522Z,1.77
2022-12-27T16:23:34.396Z,1.63
2022-12-27T16:25:39.078Z,1.90
2022-12-27T16:27:42.630Z,1.58
2022-12-27T16:29:44.672Z,1.30
2022-12-27T16:31:49.808Z,1.73
2022-12-27T16:33:53.400Z,1.67
2022-12-27T16:36:15.857Z,1.73
2022-12-27T16:38:22.286Z,1.42
2022-12-27T16:40:26.627Z,1.98
2022-12-27T16:42:53.898Z,1.92
2022-12-27T16:45:30.268Z,1.50
2022-12-27T16:48:01.074Z,2.17
2022-12-27T16:50:14.875Z,1.40
2022-12-27T16:52:24.010Z,1.50
2022-12-27T16:54:57.054Z,1.13
2022-12-27T16:57:24.863Z,1.20
2022-12-27T16:59:55.570Z,1.23
2022-12-27T17:01:58.223Z,1.80
2022-12-27T17:04:00.213Z,1.63
2022-12-27T17:06:38.272Z,1.45
2022-12-27T17:08:39.764Z,1.50
2022-12-27T17:10:44.560Z,1.50
2022-12-27T17:12:52.739Z,1.33
2022-12-27T17:15:00.463Z,1.58
2022-12-27T17:17:15.680Z,1.33
2022-12-27T17:19:43.211Z,1.50
2022-12-27T17:21:45.743Z,1.17
2022-12-27T17:23:50.344Z,1.60
2022-12-27T17:26:03.041Z,1.33
2022-12-27T17:28:21.288Z,1.25
2022-12-27T17:30:26.453Z,1.30
2022-12-27T17:32:55.465Z,1.27
2022-12-27T17:35:08.983Z,1.17
2022-12-27T17:37:11.339Z,1.40
2022-12-27T17:39:30.712Z,1.60
2022-12-27T17:41:59.783Z,1.60
2022-12-27T17:44:39.345Z,1.33
2022-12-27T17:47:04.065Z,1.63
2022-12-27T17:49:08.626Z,1.58
2022-12-27T17:51:18.467Z,1.60
2022-12-27T17:53:46.511Z,1.40
2022-12-27T17:56:19.617Z,1.88
2022-12-27T17:58:21.089Z,1.30
2022-12-27T18:00:30.971Z,1.60
2022-12-27T18:02:36.515Z,1.50
2022-12-27T18:04:43.194Z,1.58
2022-12-27T18:06:44.707Z,1.50
2022-12-27T18:08:49.182Z,1.83
2022-12-27T18:10:50.663Z,1.52
2022-12-27T18:12:55.569Z,1.38
2022-12-27T18:15:06.927Z,1.20
2022-12-27T18:17:28.457Z,1.38
2022-12-27T18:19:31.748Z,1.80
2022-12-27T18:21:33.199Z,1.30
2022-12-27T18:23:45.124Z,1.25
2022-12-27T18:25:52.058Z,1.27
2022-12-27T18:28:06.268Z,1.67
2022-12-27T18:30:11.144Z,1.42
2022-12-27T18:32:15.728Z,1.45
2022-12-27T18:34:31.426Z,1.27
2022-12-27T18:36:47.797Z,1.67
2022-12-27T18:38:59.503Z,1.48
2022-12-27T18:41:15.247Z,1.73
2022-12-27T18:43:16.707Z,1.60
2022-12-27T18:45:27.944Z,1.50
2022-12-27T18:47:29.733Z,1.75
2022-12-27T18:49:36.797Z,1.58
2022-12-27T18:53:41.629Z,1.40
2022-12-27T18:56:04.723Z,1.52
2022-12-27T18:58:20.243Z,1.42
2022-12-27T19:00:25.652Z,1.65
2022-12-27T19:02:36.854Z,1.48
2022-12-27T19:04:38.371Z,1.77
2022-12-27T19:06:51.520Z,1.60
2022-12-27T19:08:53.132Z,1.58
2022-12-27T19:10:54.863Z,1.30
2022-12-27T19:12:57.084Z,1.88
2022-12-27T19:14:58.537Z,2.05
2022-12-27T19:17:02.879Z,1.90
2022-12-27T19:19:16.516Z,1.27
2022-12-27T19:21:21.016Z,2.20
2022-12-27T19:23:29.794Z,1.65
2022-12-27T19:25:37.309Z,1.65
2022-12-27T19:27:38.723Z,1.90
2022-12-27T19:29:52.997Z,1.63
2022-12-27T19:31:58.312Z,2.00
2022-12-27T19:34:07.035Z,2.10
2022-12-27T19:36:10.187Z,1.88
2022-12-27T19:38:26.913Z,1.80
2022-12-27T19:40:28.383Z,1.67
2022-12-27T19:42:34.785Z,1.65
2022-12-27T19:44:37.257Z,1.83
2022-12-27T19:46:38.930Z,1.80
2022-12-27T19:48:41.034Z,1.65
2022-12-27T19:50:49.046Z,1.45
2022-12-27T19:52:50.664Z,1.52
2022-12-27T19:54:59.755Z,1.65
2022-12-27T19:57:01.304Z,1.70
2022-12-27T19:59:02.764Z,1.92
2022-12-27T20:01:04.551Z,1.48
2022-12-27T20:03:05.975Z,1.73
2022-12-27T20:05:07.765Z,2.08
2022-12-27T20:07:19.398Z,1.98
2022-12-27T20:09:20.821Z,1.73
2022-12-27T20:11:23.325Z,1.55
2022-12-27T20:13:25.870Z,1.70
2022-12-27T20:15:30.598Z,1.52
2022-12-27T20:17:32.533Z,1.42
2022-12-27T20:19:34.016Z,1.60
2022-12-27T20:21:35.453Z,1.52
2022-12-27T20:23:37.319Z,1.95
2022-12-27T20:25:41.930Z,1.60
2022-12-27T20:27:44.531Z,1.30
2022-12-27T20:29:46.298Z,1.63
2022-12-27T20:31:49.938Z,1.63
2022-12-27T20:33:53.188Z,1.58
2022-12-27T20:35:57.041Z,1.80
2022-12-27T20:37:58.624Z,1.80
2022-12-27T20:39:59.982Z,1.75
2022-12-27T20:42:02.209Z,1.90
2022-12-27T20:44:03.875Z,2.28
2022-12-27T20:46:18.627Z,1.63
2022-12-27T20:48:20.082Z,1.40
2022-12-27T20:50:21.467Z,2.20
2022-12-27T20:52:27.266Z,1.85
2022-12-27T20:54:32.297Z,1.80
2022-12-27T20:56:35.096Z,1.60
2022-12-27T20:58:38.440Z,1.45
2022-12-27T21:00:41.282Z,1.95
2022-12-27T21:02:42.985Z,1.52
2022-12-27T21:04:44.524Z,2.00
2022-12-27T21:06:45.926Z,2.17
2022-12-27T21:08:52.545Z,1.88
2022-12-27T21:10:57.935Z,1.52
2022-12-27T21:12:59.326Z,1.38
2022-12-27T21:15:00.779Z,1.60
2022-12-27T21:17:03.076Z,1.40
2022-12-27T21:19:05.712Z,1.48
2022-12-27T21:21:11.823Z,2.00
2022-12-27T21:23:13.203Z,1.15
2022-12-27T21:25:14.613Z,1.80
2022-12-27T21:27:16.124Z,1.70
2022-12-27T21:29:19.189Z,1.95
2022-12-27T21:31:21.699Z,1.48
2022-12-27T21:33:23.911Z,1.50
2022-12-27T21:35:25.257Z,1.60
2022-12-27T21:37:26.760Z,1.77
2022-12-27T21:39:28.530Z,1.70
2022-12-27T21:41:35.136Z,1.52
2022-12-27T21:43:36.551Z,1.75
2022-12-27T21:45:37.945Z,1.65
2022-12-27T21:47:39.387Z,1.23
2022-12-27T21:49:41.374Z,2.03
2022-12-27T21:51:43.640Z,1.52
2022-12-27T21:53:45.580Z,1.20
2022-12-27T21:55:46.998Z,1.60
2022-12-27T21:57:48.396Z,1.67
2022-12-27T21:59:49.784Z,1.42
2022-12-27T22:01:52.254Z,1.30
2022-12-27T22:03:55.272Z,1.42
2022-12-27T22:05:56.671Z,1.50
2022-12-27T22:07:58.075Z,1.50
2022-12-27T22:09:59.459Z,1.23
2022-12-27T22:12:00.858Z,1.30
2022-12-27T22:14:03.140Z,1.55
2022-12-27T22:16:07.132Z,1.33
2022-12-27T22:18:08.771Z,1.50
2022-12-27T22:20:10.723Z,1.67
2022-12-27T22:22:12.190Z,1.63
2022-12-27T22:24:19.547Z,1.60
2022-12-27T22:26:24.834Z,1.40
2022-12-27T22:28:26.439Z,1.75
2022-12-27T22:30:27.859Z,1.23
2022-12-27T22:32:29.235Z,1.45
2022-12-27T22:34:30.595Z,1.70
2022-12-27T22:36:33.220Z,1.48
2022-12-27T22:38:36.620Z,1.50
2022-12-27T22:40:45.823Z,1.60
2022-12-27T22:42:48.098Z,1.70
2022-12-27T22:44:49.539Z,1.33
2022-12-27T22:49:12.429Z,1.45
2022-12-27T22:51:16.586Z,1.63
2022-12-27T22:53:18.044Z,1.40
2022-12-27T22:55:19.408Z,1.50
2022-12-27T22:57:20.804Z,1.70
2022-12-27T22:59:22.189Z,1.25
2022-12-27T23:01:28.756Z,1.45
2022-12-27T23:03:30.326Z,1.30
2022-12-27T23:05:31.704Z,1.42
2022-12-27T23:08:05.261Z,1.40
2022-12-27T23:09:54.578Z,1.63
2022-12-27T23:11:56.429Z,1.50
2022-12-27T23:14:04.062Z,1.40
2022-12-27T23:16:06.248Z,1.35
2022-12-27T23:18:07.816Z,1.52
2022-12-27T23:20:10.071Z,1.10
2022-12-27T23:22:11.434Z,1.33
2022-12-27T23:24:13.366Z,1.60
2022-12-27T23:26:17.853Z,1.35
2022-12-27T23:28:20.266Z,1.30
2022-12-27T23:30:22.881Z,1.95
2022-12-27T23:32:24.340Z,1.73
2022-12-27T23:34:28.827Z,1.55
2022-12-27T23:36:31.416Z,1.33
2022-12-27T23:38:33.249Z,1.40
2022-12-27T23:40:34.642Z,1.75
2022-12-27T23:42:36.015Z,1.30
2022-12-27T23:44:37.418Z,1.35
2022-12-27T23:46:38.837Z,1.42
2022-12-27T23:48:41.320Z,1.60
2022-12-27T23:50:42.922Z,1.20
2022-12-27T23:52:45.154Z,1.63
2022-12-27T23:54:46.543Z,1.42
2022-12-27T23:56:47.888Z,1.38
